Time,TemperatureF,DewpointF,PressureIn,WindDirection,WindDirectionDegrees,WindSpeedMPH,WindSpeedGustMPH,Humidity,HourlyPrecipIn,Conditions,Clouds,dailyrainin,SoftwareType,DateUTC
2013-03-13 00:26:00,44.4,43.6,30.13,North,0,3.8,-999.0,97,-99.99,,,0.00,Acu-Link.com,2013-03-13 05:26:00,
2013-03-13 00:41:00,44.4,43.9,30.13,West,270,1.6,-999.0,98,-99.99,,,0.00,Acu-Link.com,2013-03-13 05:41:00,
2013-03-13 00:57:00,43.9,43.4,30.13,SW,225,0.0,-999.0,98,-99.99,,,0.00,Acu-Link.com,2013-03-13 05:57:00,
2013-03-13 01:12:00,42.8,41.7,30.13,East,90,0.0,-999.0,96,-99.99,,,0.00,Acu-Link.com,2013-03-13 06:12:00,
2013-03-13 01:27:00,42.3,41.5,30.13,West,270,0.0,-999.0,97,-99.99,,,0.00,Acu-Link.com,2013-03-13 06:27:00,
2013-03-13 01:43:00,42.6,42.1,30.13,East,90,0.0,-999.0,98,-99.99,,,0.00,Acu-Link.com,2013-03-13 06:43:00,
2013-03-13 01:58:00,42.8,42.5,30.13,NNE,22,0.0,-999.0,99,-99.99,,,0.00,Acu-Link.com,2013-03-13 06:58:00,
2013-03-13 02:13:00,42.8,42.5,30.13,NNE,22,0.0,-999.0,99,-99.99,,,0.00,Acu-Link.com,2013-03-13 07:13:00,
2013-03-13 02:29:00,42.4,42.2,30.13,South,180,0.0,-999.0,99,-99.99,,,0.00,Acu-Link.com,2013-03-13 07:29:00,
2013-03-13 02:44:00,41.5,41.0,30.13,South,180,0.0,-999.0,98,-99.99,,,0.00,Acu-Link.com,2013-03-13 07:44:00,
2013-03-13 02:59:00,40.6,39.9,30.13,ESE,112,0.0,-999.0,97,-99.99,,,0.00,Acu-Link.com,2013-03-13 07:59:00,
2013-03-13 03:14:00,41.2,40.9,30.14,South,180,2.2,-999.0,99,-99.99,,,0.00,Acu-Link.com,2013-03-13 08:14:00,
2013-03-13 03:30:00,40.3,40.0,30.13,SW,225,0.0,-999.0,99,-99.99,,,0.00,Acu-Link.com,2013-03-13 08:30:00,
2013-03-13 03:45:00,39.9,39.7,30.13,NW,315,1.6,-999.0,99,-99.99,,,0.00,Acu-Link.com,2013-03-13 08:45:00,
2013-03-13 04:00:00,40.6,40.4,30.14,North,0,0.0,-999.0,99,-99.99,,,0.00,Acu-Link.com,2013-03-13 09:00:00,
2013-03-13 04:15:00,40.1,39.8,30.14,ENE,67,0.0,-999.0,99,-99.99,,,0.00,Acu-Link.com,2013-03-13 09:15:00,
2013-03-13 04:31:00,39.4,39.1,30.14,NNW,337,0.0,-999.0,99,-99.99,,,0.00,Acu-Link.com,2013-03-13 09:31:00,
2013-03-13 05:01:00,39.4,39.1,30.15,North,0,0.0,-999.0,99,-99.99,,,0.00,Acu-Link.com,2013-03-13 10:01:00,
2013-03-13 05:17:00,39.7,39.5,30.16,West,270,0.0,-999.0,99,-99.99,,,0.00,Acu-Link.com,2013-03-13 10:17:00,
2013-03-13 05:32:00,39.9,39.7,30.16,NW,315,0.0,-999.0,99,-99.99,,,0.00,Acu-Link.com,2013-03-13 10:32:00,
2013-03-13 05:47:00,40.1,39.8,30.16,NNW,337,3.8,-999.0,99,-99.99,,,0.00,Acu-Link.com,2013-03-13 10:47:00,
2013-03-13 06:02:00,41.2,40.9,30.18,NNE,22,2.7,-999.0,99,-99.99,,,0.00,Acu-Link.com,2013-03-13 11:02:00,
2013-03-13 06:18:00,43.5,39.6,30.18,NNW,337,4.3,-999.0,86,-99.99,,,0.00,Acu-Link.com,2013-03-13 11:18:00,
2013-03-13 06:33:00,43.7,39.2,30.19,ENE,67,4.3,-999.0,84,-99.99,,,0.00,Acu-Link.com,2013-03-13 11:33:00,
2013-03-13 06:48:00,43.9,38.7,30.20,North,0,2.7,-999.0,82,-99.99,,,0.00,Acu-Link.com,2013-03-13 11:48:00,
2013-03-13 07:04:00,44.2,38.5,30.21,NE,45,3.1,-999.0,80,-99.99,,,0.00,Acu-Link.com,2013-03-13 12:04:00,
2013-03-13 07:19:00,45.0,38.8,30.21,NE,45,3.1,-999.0,79,-99.99,,,0.00,Acu-Link.com,2013-03-13 12:19:00,
2013-03-13 07:34:00,44.8,38.7,30.22,ENE,67,1.6,-999.0,79,-99.99,,,0.00,Acu-Link.com,2013-03-13 12:34:00,
2013-03-13 07:50:00,44.6,38.5,30.22,ENE,67,2.7,-999.0,79,-99.99,,,0.00,Acu-Link.com,2013-03-13 12:50:00,
2013-03-13 08:05:00,44.6,38.2,30.23,NE,45,3.8,-999.0,78,-99.99,,,0.00,Acu-Link.com,2013-03-13 13:05:00,
2013-03-13 08:20:00,45.3,38.5,30.24,NE,45,3.8,-999.0,77,-99.99,,,0.00,Acu-Link.com,2013-03-13 13:20:00,
2013-03-13 08:35:00,47.1,40.0,30.24,NNE,22,3.8,-999.0,76,-99.99,,,0.00,Acu-Link.com,2013-03-13 13:35:00,
2013-03-13 09:06:00,53.2,41.4,30.26,ENE,67,4.7,-999.0,64,-99.99,,,0.00,Acu-Link.com,2013-03-13 14:06:00,
2013-03-13 09:21:00,53.6,41.3,30.26,NNE,22,6.7,-999.0,63,-99.99,,,0.00,Acu-Link.com,2013-03-13 14:21:00,
2013-03-13 09:37:00,54.5,40.0,30.28,East,90,7.8,-999.0,58,-99.99,,,0.00,Acu-Link.com,2013-03-13 14:37:00,
2013-03-13 09:52:00,55.9,40.5,30.28,East,90,4.7,-999.0,56,-99.99,,,0.00,Acu-Link.com,2013-03-13 14:52:00,
2013-03-13 10:07:00,57.2,39.7,30.28,NE,45,7.4,-999.0,52,-99.99,,,0.00,Acu-Link.com,2013-03-13 15:07:00,
2013-03-13 10:22:00,58.1,39.0,30.29,ENE,67,7.8,-999.0,49,-99.99,,,0.00,Acu-Link.com,2013-03-13 15:22:00,
2013-03-13 10:38:00,59.4,39.1,30.30,NNE,22,8.9,-999.0,47,-99.99,,,0.00,Acu-Link.com,2013-03-13 15:38:00,
2013-03-13 10:53:00,60.4,40.1,30.30,ESE,112,3.8,-999.0,47,-99.99,,,0.00,Acu-Link.com,2013-03-13 15:53:00,
2013-03-13 11:08:00,61.3,38.1,30.30,East,90,7.4,-999.0,42,-99.99,,,0.00,Acu-Link.com,2013-03-13 16:08:00,
2013-03-13 11:23:00,62.4,36.5,30.30,ENE,67,5.8,-999.0,38,-99.99,,,0.00,Acu-Link.com,2013-03-13 16:23:00,
2013-03-13 11:38:00,63.1,35.0,30.30,East,90,6.3,-999.0,35,-99.99,,,0.00,Acu-Link.com,2013-03-13 16:38:00,
2013-03-13 11:54:00,64.0,35.1,30.30,NE,45,6.3,-999.0,34,-99.99,,,0.00,Acu-Link.com,2013-03-13 16:54:00,
2013-03-13 12:09:00,64.0,35.1,30.30,NNE,22,4.7,-999.0,34,-99.99,,,0.00,Acu-Link.com,2013-03-13 17:09:00,
2013-03-13 12:24:00,65.3,34.7,30.29,NNE,22,9.4,-999.0,32,-99.99,,,0.00,Acu-Link.com,2013-03-13 17:24:00,
2013-03-13 12:39:00,65.1,32.9,30.29,NNW,337,11.9,-999.0,30,-99.99,,,0.00,Acu-Link.com,2013-03-13 17:39:00,
2013-03-13 12:54:00,66.0,32.8,30.28,NE,45,7.8,-999.0,29,-99.99,,,0.00,Acu-Link.com,2013-03-13 17:54:00,
2013-03-13 13:10:00,66.6,32.4,30.27,ESE,112,6.7,-999.0,28,-99.99,,,0.00,Acu-Link.com,2013-03-13 18:10:00,
2013-03-13 13:25:00,67.8,34.4,30.26,NE,45,9.8,-999.0,29,-99.99,,,0.00,Acu-Link.com,2013-03-13 18:25:00,
2013-03-13 13:40:00,68.0,36.2,30.26,North,0,12.5,-999.0,31,-99.99,,,0.00,Acu-Link.com,2013-03-13 18:40:00,
2013-03-13 13:55:00,67.6,34.2,30.25,NE,45,9.4,-999.0,29,-99.99,,,0.00,Acu-Link.com,2013-03-13 18:55:00,
2013-03-13 14:11:00,67.5,33.2,30.25,NE,45,7.8,-999.0,28,-99.99,,,0.00,Acu-Link.com,2013-03-13 19:11:00,
2013-03-13 14:26:00,67.8,33.5,30.23,North,0,6.3,-999.0,28,-99.99,,,0.00,Acu-Link.com,2013-03-13 19:26:00,
2013-03-13 14:56:00,68.5,35.9,30.22,NE,45,7.8,-999.0,30,-99.99,,,0.00,Acu-Link.com,2013-03-13 19:56:00,
2013-03-13 15:12:00,69.1,36.3,30.22,NNW,337,8.3,-999.0,30,-99.99,,,0.00,Acu-Link.com,2013-03-13 20:12:00,
2013-03-13 15:27:00,68.9,35.3,30.21,NNW,337,9.4,-999.0,29,-99.99,,,0.00,Acu-Link.com,2013-03-13 20:27:00,
2013-03-13 15:42:00,68.7,34.3,30.21,ENE,67,4.7,-999.0,28,-99.99,,,0.00,Acu-Link.com,2013-03-13 20:42:00,
2013-03-13 15:58:00,68.9,31.6,30.21,NNE,22,7.8,-999.0,25,-99.99,,,0.00,Acu-Link.com,2013-03-13 20:58:00,
2013-03-13 16:13:00,68.7,34.3,30.20,NNE,22,10.3,-999.0,28,-99.99,,,0.00,Acu-Link.com,2013-03-13 21:13:00,
2013-03-13 16:28:00,68.5,33.2,30.20,NNE,22,9.8,-999.0,27,-99.99,,,0.00,Acu-Link.com,2013-03-13 21:28:00,
2013-03-13 16:43:00,68.7,36.0,30.19,ESE,112,4.7,-999.0,30,-99.99,,,0.00,Acu-Link.com,2013-03-13 21:43:00,
2013-03-13 16:58:00,68.9,35.3,30.19,North,0,9.4,-999.0,29,-99.99,,,0.00,Acu-Link.com,2013-03-13 21:58:00,
2013-03-13 17:13:00,68.9,33.5,30.19,NNW,337,11.9,-999.0,27,-99.99,,,0.00,Acu-Link.com,2013-03-13 22:13:00,
2013-03-13 17:29:00,68.0,32.8,30.18,North,0,9.8,-999.0,27,-99.99,,,0.00,Acu-Link.com,2013-03-13 22:29:00,
2013-03-13 17:44:00,67.8,34.4,30.18,NNE,22,9.8,-999.0,29,-99.99,,,0.00,Acu-Link.com,2013-03-13 22:44:00,
2013-03-13 17:59:00,67.5,32.3,30.19,ENE,67,4.7,-999.0,27,-99.99,,,0.00,Acu-Link.com,2013-03-13 22:59:00,
2013-03-13 18:14:00,68.0,33.7,30.19,NE,45,5.8,-999.0,28,-99.99,,,0.00,Acu-Link.com,2013-03-13 23:14:00,
2013-03-13 18:29:00,67.8,32.6,30.19,NE,45,4.3,-999.0,27,-99.99,,,0.00,Acu-Link.com,2013-03-13 23:29:00,
2013-03-13 18:44:00,66.6,33.3,30.19,NNE,22,3.8,-999.0,29,-99.99,,,0.00,Acu-Link.com,2013-03-13 23:44:00,
2013-03-13 18:59:00,64.8,33.4,30.20,NNE,22,3.8,-999.0,31,-99.99,,,0.00,Acu-Link.com,2013-03-13 23:59:00,
2013-03-13 19:15:00,62.2,33.5,30.20,NE,45,3.1,-999.0,34,-99.99,,,0.00,Acu-Link.com,2013-03-14 00:15:00,
2013-03-13 19:30:00,61.5,31.4,30.20,North,0,3.1,-999.0,32,-99.99,,,0.00,Acu-Link.com,2013-03-14 00:30:00,
2013-03-13 19:45:00,59.2,35.5,30.20,NNW,337,0.0,-999.0,41,-99.99,,,0.00,Acu-Link.com,2013-03-14 00:45:00,
2013-03-13 20:00:00,56.5,35.4,30.21,NW,315,2.2,-999.0,45,-99.99,,,0.00,Acu-Link.com,2013-03-14 01:00:00,
2013-03-13 20:16:00,55.0,35.2,30.21,WNW,292,2.2,-999.0,47,-99.99,,,0.00,Acu-Link.com,2013-03-14 01:16:00,
2013-03-13 20:31:00,52.7,40.1,30.21,ESE,112,2.2,-999.0,62,-99.99,,,0.00,Acu-Link.com,2013-03-14 01:31:00,
2013-03-13 21:02:00,50.7,40.2,30.22,NW,315,0.0,-999.0,67,-99.99,,,0.00,Acu-Link.com,2013-03-14 02:02:00,
2013-03-13 21:17:00,49.6,39.1,30.22,ENE,67,0.0,-999.0,67,-99.99,,,0.00,Acu-Link.com,2013-03-14 02:17:00,
2013-03-13 21:32:00,48.2,41.7,30.23,ENE,67,0.0,-999.0,78,-99.99,,,0.00,Acu-Link.com,2013-03-14 02:32:00,
2013-03-13 21:47:00,47.3,42.1,30.24,NE,45,0.0,-999.0,82,-99.99,,,0.00,Acu-Link.com,2013-03-14 02:47:00,
2013-03-13 22:03:00,46.8,41.2,30.24,SSW,202,0.0,-999.0,81,-99.99,,,0.00,Acu-Link.com,2013-03-14 03:03:00,
2013-03-13 22:18:00,45.7,41.7,30.24,NE,45,0.0,-999.0,86,-99.99,,,0.00,Acu-Link.com,2013-03-14 03:18:00,
2013-03-13 22:33:00,45.1,41.8,30.25,NNW,337,0.0,-999.0,88,-99.99,,,0.00,Acu-Link.com,2013-03-14 03:33:00,
2013-03-13 22:49:00,45.0,42.8,30.25,NW,315,0.0,-999.0,92,-99.99,,,0.00,Acu-Link.com,2013-03-14 03:49:00,
2013-03-13 23:04:00,44.4,40.2,30.25,NW,315,0.0,-999.0,85,-99.99,,,0.00,Acu-Link.com,2013-03-14 04:04:00,
2013-03-13 23:19:00,44.2,39.7,30.25,NE,45,0.0,-999.0,84,-99.99,,,0.00,Acu-Link.com,2013-03-14 04:19:00,
2013-03-13 23:34:00,43.3,39.4,30.25,West,270,0.0,-999.0,86,-99.99,,,0.00,Acu-Link.com,2013-03-14 04:34:00,
2013-03-13 23:50:00,43.2,39.3,30.24,SW,225,0.0,-999.0,86,-99.99,,,0.00,Acu-Link.com,2013-03-14 04:50:00,